createdAt,value
2022-12-02T00:02:20.489Z,1.38
2022-12-02T00:04:58.273Z,1.30
2022-12-02T00:07:26.542Z,1.30
2022-12-02T00:09:54.456Z,1.30
2022-12-02T00:12:27.772Z,1.30
2022-12-02T00:15:01.042Z,1.30
2022-12-02T00:17:28.855Z,1.30
2022-12-02T00:19:56.540Z,1.30
2022-12-02T00:22:24.216Z,1.28
2022-12-02T00:24:52.125Z,1.30
2022-12-02T00:27:20.146Z,1.20
2022-12-02T00:29:47.886Z,1.22
2022-12-02T00:32:15.516Z,1.30
2022-12-02T00:34:43.177Z,1.30
2022-12-02T00:37:10.800Z,1.38
2022-12-02T00:39:38.491Z,1.30
2022-12-02T00:42:06.172Z,1.30
2022-12-02T00:44:52.944Z,1.20
2022-12-02T00:47:20.883Z,1.20
2022-12-02T00:49:48.532Z,1.20
2022-12-02T00:52:16.212Z,1.20
2022-12-02T00:54:43.858Z,1.20
2022-12-02T00:57:11.512Z,1.20
2022-12-02T00:59:39.171Z,1.30
2022-12-02T01:02:07.098Z,1.30
2022-12-02T01:04:35.061Z,1.30
2022-12-02T01:07:02.872Z,1.30
2022-12-02T01:09:30.904Z,1.30
2022-12-02T01:11:58.700Z,1.30
2022-12-02T01:14:26.465Z,1.22
2022-12-02T01:16:54.724Z,1.20
2022-12-02T01:19:22.389Z,1.20
2022-12-02T01:21:50.273Z,1.20
2022-12-02T01:24:17.945Z,1.30
2022-12-02T01:26:45.570Z,1.28
2022-12-02T01:29:13.366Z,1.30
2022-12-02T01:31:41.063Z,1.24
2022-12-02T01:34:09.064Z,1.30
2022-12-02T01:36:36.810Z,1.30
2022-12-02T01:39:04.587Z,1.20
2022-12-02T01:41:32.480Z,1.20
2022-12-02T01:44:01.504Z,1.20
2022-12-02T01:46:29.206Z,1.20
2022-12-02T01:48:56.983Z,1.20
2022-12-02T01:51:24.721Z,1.20
2022-12-02T01:53:53.433Z,1.20
2022-12-02T01:56:21.143Z,1.20
2022-12-02T01:58:48.807Z,1.20
2022-12-02T02:01:29.662Z,1.20
2022-12-02T02:03:58.052Z,1.20
2022-12-02T02:06:29.768Z,1.20
2022-12-02T02:08:58.339Z,1.12
2022-12-02T02:11:26.751Z,1.16
2022-12-02T02:13:56.155Z,1.10
2022-12-02T02:16:24.002Z,1.10
2022-12-02T02:18:51.803Z,1.10
2022-12-02T02:21:36.842Z,1.00
2022-12-02T02:24:04.981Z,1.00
2022-12-02T02:26:32.816Z,0.92
2022-12-02T02:29:01.035Z,0.90
2022-12-02T02:31:28.802Z,0.90
2022-12-02T02:33:56.616Z,0.90
2022-12-02T02:36:24.539Z,0.90
2022-12-02T02:38:53.337Z,0.90
2022-12-02T02:41:22.002Z,0.90
2022-12-02T02:43:50.150Z,0.90
2022-12-02T02:46:18.161Z,0.90
2022-12-02T02:48:48.480Z,0.90
2022-12-02T02:51:16.824Z,0.90
2022-12-02T02:53:44.542Z,0.90
2022-12-02T02:56:13.300Z,0.80
2022-12-02T02:58:41.044Z,0.80
2022-12-02T03:01:24.750Z,0.80
2022-12-02T03:03:59.829Z,0.90
2022-12-02T03:06:31.944Z,0.90
2022-12-02T03:09:02.036Z,0.90
2022-12-02T03:11:29.944Z,0.90
2022-12-02T03:13:58.124Z,0.90
2022-12-02T03:16:27.049Z,0.90
2022-12-02T03:18:57.943Z,0.90
2022-12-02T03:21:26.984Z,0.90
2022-12-02T03:23:58.397Z,0.90
2022-12-02T03:26:28.369Z,1.00
2022-12-02T03:28:57.306Z,1.00
2022-12-02T03:31:26.771Z,1.00
2022-12-02T03:33:56.793Z,1.00
2022-12-02T03:36:25.242Z,1.08
2022-12-02T03:38:53.720Z,1.10
2022-12-02T03:41:23.936Z,1.10
2022-12-02T03:43:51.722Z,1.00
2022-12-02T03:46:19.638Z,1.00
2022-12-02T03:48:48.468Z,1.00
2022-12-02T03:51:17.388Z,1.00
2022-12-02T03:53:45.976Z,1.00
2022-12-02T03:56:14.254Z,1.00
2022-12-02T03:58:52.487Z,1.00
2022-12-02T04:01:22.314Z,0.92
2022-12-02T04:03:50.014Z,0.90
2022-12-02T04:06:17.617Z,0.80
2022-12-02T04:08:45.986Z,0.80
2022-12-02T04:11:13.861Z,0.80
2022-12-02T04:13:41.517Z,0.80
2022-12-02T04:16:09.266Z,0.80
2022-12-02T04:18:37.075Z,0.72
2022-12-02T04:21:04.983Z,0.80
2022-12-02T04:23:32.839Z,0.80
2022-12-02T04:26:00.430Z,0.80
2022-12-02T04:28:28.263Z,0.80
2022-12-02T04:30:56.143Z,0.72
2022-12-02T04:33:23.986Z,0.70
2022-12-02T04:35:51.759Z,0.70
2022-12-02T04:38:19.479Z,0.70
2022-12-02T04:40:47.158Z,0.60
2022-12-02T04:43:14.830Z,0.60
2022-12-02T04:45:42.584Z,0.60
2022-12-02T04:48:10.303Z,0.54
2022-12-02T04:50:38.023Z,0.50
2022-12-02T04:53:05.772Z,0.50
2022-12-02T04:55:33.479Z,0.50
2022-12-02T04:58:01.065Z,0.50
2022-12-02T05:00:28.804Z,0.56
2022-12-02T05:02:57.277Z,0.50
2022-12-02T05:05:25.303Z,0.58
2022-12-02T05:07:53.103Z,0.60
2022-12-02T05:10:20.832Z,0.60
2022-12-02T05:12:48.785Z,0.60
2022-12-02T05:15:16.574Z,0.60
2022-12-02T05:17:44.315Z,0.60
2022-12-02T05:20:13.359Z,0.60
2022-12-02T05:22:41.093Z,0.60
2022-12-02T05:25:09.325Z,0.60
2022-12-02T05:27:37.274Z,0.60
2022-12-02T05:30:07.780Z,0.60
2022-12-02T05:32:35.441Z,0.60
2022-12-02T05:35:03.374Z,0.70
2022-12-02T05:37:31.126Z,0.70
2022-12-02T05:40:00.574Z,0.70
2022-12-02T05:42:28.567Z,0.76
2022-12-02T05:45:01.721Z,0.72
2022-12-02T05:47:32.748Z,0.70
2022-12-02T05:50:01.247Z,0.70
2022-12-02T05:52:30.060Z,0.70
2022-12-02T05:55:07.819Z,0.60
2022-12-02T05:57:35.540Z,0.60
2022-12-02T06:00:09.238Z,0.52
2022-12-02T06:02:43.992Z,0.50
2022-12-02T06:05:26.589Z,0.56
2022-12-02T06:07:59.367Z,0.60
2022-12-02T06:10:32.713Z,0.70
2022-12-02T06:13:12.624Z,0.70
2022-12-02T06:15:41.002Z,0.64
2022-12-02T06:18:19.285Z,0.62
2022-12-02T06:20:53.322Z,0.60
2022-12-02T06:23:22.246Z,0.52
2022-12-02T06:25:52.642Z,0.48
2022-12-02T06:28:26.896Z,0.40
2022-12-02T06:31:00.101Z,0.40
2022-12-02T06:33:33.718Z,0.40
2022-12-02T06:36:09.932Z,0.40
2022-12-02T06:38:49.361Z,0.34
2022-12-02T06:41:31.761Z,0.30
2022-12-02T06:44:31.702Z,0.30
2022-12-02T06:47:20.528Z,0.30
2022-12-02T06:49:48.295Z,0.30
2022-12-02T06:52:23.177Z,0.30
2022-12-02T06:54:53.616Z,0.22
2022-12-02T06:57:21.899Z,0.22
2022-12-02T06:59:52.340Z,0.20
2022-12-02T07:02:32.134Z,0.24
2022-12-02T07:05:00.156Z,0.30
2022-12-02T07:07:31.441Z,0.30
2022-12-02T07:10:03.438Z,0.28
2022-12-02T07:12:38.383Z,0.20
2022-12-02T07:15:30.630Z,0.20
2022-12-02T07:18:09.434Z,0.30
2022-12-02T07:20:40.121Z,0.38
2022-12-02T07:23:27.529Z,0.40
2022-12-02T07:26:00.670Z,0.40
2022-12-02T07:28:44.495Z,0.40
2022-12-02T07:31:27.943Z,0.40
2022-12-02T07:33:56.426Z,0.40
2022-12-02T07:36:24.188Z,0.40
2022-12-02T07:39:07.474Z,0.40
2022-12-02T07:41:37.199Z,0.42
2022-12-02T07:44:06.589Z,0.40
2022-12-02T07:46:34.363Z,0.40
2022-12-02T07:49:02.122Z,0.40
2022-12-02T07:51:29.963Z,0.40
2022-12-02T07:53:57.782Z,0.40
2022-12-02T07:56:25.588Z,0.50
2022-12-02T08:01:41.948Z,0.50
2022-12-02T08:04:09.796Z,0.40
2022-12-02T08:06:39.741Z,0.40
2022-12-02T08:09:09.535Z,0.36
2022-12-02T08:11:37.921Z,0.30
2022-12-02T08:14:06.197Z,0.30
2022-12-02T08:16:34.439Z,0.30
2022-12-02T08:19:02.489Z,0.40
2022-12-02T08:21:32.465Z,0.40
2022-12-02T08:24:00.711Z,0.40
2022-12-02T08:26:28.387Z,0.40
2022-12-02T08:28:56.090Z,0.40
2022-12-02T08:31:24.134Z,0.40
2022-12-02T08:33:52.384Z,0.38
2022-12-02T08:36:21.351Z,0.30
2022-12-02T08:38:49.809Z,0.38
2022-12-02T08:41:18.056Z,0.30
2022-12-02T08:43:45.988Z,0.30
2022-12-02T08:46:15.351Z,0.30
2022-12-02T08:48:43.157Z,0.38
2022-12-02T08:51:10.920Z,0.40
2022-12-02T08:53:38.803Z,0.36
2022-12-02T08:56:06.534Z,0.34
2022-12-02T08:58:34.293Z,0.40
2022-12-02T09:01:02.146Z,0.40
2022-12-02T09:03:30.214Z,0.40
2022-12-02T09:05:57.951Z,0.40
2022-12-02T09:08:25.821Z,0.40
2022-12-02T09:10:54.011Z,0.40
2022-12-02T09:13:22.046Z,0.40
2022-12-02T09:15:49.824Z,0.40
2022-12-02T09:18:17.611Z,0.38
2022-12-02T09:20:45.356Z,0.30
2022-12-02T09:23:12.959Z,0.30
2022-12-02T09:25:40.626Z,0.20
2022-12-02T09:28:08.386Z,0.20
2022-12-02T09:30:36.347Z,0.20
2022-12-02T09:33:04.108Z,0.20
2022-12-02T09:35:31.969Z,0.30
2022-12-02T09:37:59.795Z,0.30
2022-12-02T09:40:27.777Z,0.20
2022-12-02T09:42:55.475Z,0.20
2022-12-02T09:45:23.286Z,0.20
2022-12-02T09:47:52.865Z,0.14
2022-12-02T09:50:22.740Z,0.20
2022-12-02T09:52:50.531Z,0.20
2022-12-02T09:55:20.792Z,0.20
2022-12-02T09:57:48.634Z,0.20
2022-12-02T10:00:20.644Z,0.20
2022-12-02T10:02:54.577Z,0.20
2022-12-02T10:05:27.935Z,0.14
2022-12-02T10:07:59.388Z,0.10
2022-12-02T10:10:40.134Z,0.10
2022-12-02T10:13:14.124Z,0.10
2022-12-02T10:15:42.801Z,0.10
2022-12-02T10:18:20.967Z,0.10
2022-12-02T10:20:50.516Z,0.20
2022-12-02T10:23:24.926Z,0.28
2022-12-02T10:26:07.788Z,0.28
2022-12-02T10:28:38.310Z,0.20
2022-12-02T10:31:19.512Z,0.20
2022-12-02T10:33:56.410Z,0.24
2022-12-02T10:36:42.012Z,0.20
2022-12-02T10:39:24.606Z,0.10
2022-12-02T10:42:04.262Z,0.10
2022-12-02T10:44:42.691Z,0.20
2022-12-02T10:47:26.627Z,0.28
2022-12-02T10:50:00.353Z,0.30
2022-12-02T10:52:42.735Z,0.26
2022-12-02T10:55:13.224Z,0.30
2022-12-02T10:57:43.983Z,0.30
2022-12-02T11:00:23.649Z,0.30
2022-12-02T11:02:57.448Z,0.30
2022-12-02T11:05:32.562Z,0.28
2022-12-02T11:08:27.581Z,0.24
2022-12-02T11:11:15.547Z,0.20
2022-12-02T11:14:01.104Z,0.20
2022-12-02T11:16:29.028Z,0.30
2022-12-02T11:19:13.425Z,0.30
2022-12-02T11:21:45.028Z,0.40
2022-12-02T11:24:28.158Z,0.38
2022-12-02T11:27:04.944Z,0.40
2022-12-02T11:29:37.939Z,0.30
2022-12-02T11:32:22.416Z,0.30
2022-12-02T11:35:16.510Z,0.30
2022-12-02T11:37:47.398Z,0.30
2022-12-02T11:40:18.244Z,0.30
2022-12-02T11:42:46.938Z,0.40
2022-12-02T11:45:17.700Z,0.40
2022-12-02T11:47:54.774Z,0.40
2022-12-02T11:50:34.735Z,0.34
2022-12-02T11:53:13.007Z,0.30
2022-12-02T11:55:44.911Z,0.24
2022-12-02T11:58:30.657Z,0.20
2022-12-02T12:01:13.714Z,0.20
2022-12-02T12:03:47.696Z,0.20
2022-12-02T12:06:19.182Z,0.20
2022-12-02T12:08:51.353Z,0.20
2022-12-02T12:11:35.023Z,0.20
2022-12-02T12:14:11.955Z,0.20
2022-12-02T12:16:43.905Z,0.20
2022-12-02T12:19:11.452Z,0.16
2022-12-02T12:21:45.354Z,0.10
2022-12-02T12:24:23.416Z,0.10
2022-12-02T12:27:04.117Z,0.10
2022-12-02T12:29:35.063Z,0.10
2022-12-02T12:32:04.631Z,0.10
2022-12-02T12:34:33.066Z,0.10
2022-12-02T12:37:01.612Z,0.10
2022-12-02T12:39:29.426Z,0.18
2022-12-02T12:42:00.387Z,0.20
2022-12-02T12:44:32.133Z,0.20
2022-12-02T12:47:04.236Z,0.20
2022-12-02T12:49:34.470Z,0.16
2022-12-02T12:52:03.873Z,0.10
2022-12-02T12:54:31.865Z,0.10
2022-12-02T12:56:59.626Z,0.10
2022-12-02T12:59:27.416Z,0.10
2022-12-02T13:01:55.247Z,0.10
2022-12-02T13:04:23.282Z,0.00
2022-12-02T13:06:50.923Z,0.00
2022-12-02T13:09:18.615Z,0.00
2022-12-02T13:11:46.400Z,0.00
2022-12-02T13:14:14.149Z,-0.10
2022-12-02T13:16:43.657Z,-0.10
2022-12-02T13:19:11.565Z,-0.10
2022-12-02T13:21:39.248Z,-0.10
2022-12-02T13:24:07.478Z,0.00
2022-12-02T13:26:35.147Z,0.02
2022-12-02T13:29:02.999Z,0.10
2022-12-02T13:31:30.729Z,0.10
2022-12-02T13:33:58.613Z,0.10
2022-12-02T13:36:26.429Z,0.10
2022-12-02T13:38:54.135Z,0.08
2022-12-02T13:41:21.894Z,0.06
2022-12-02T13:43:49.667Z,0.00
2022-12-02T13:46:17.433Z,0.00
2022-12-02T13:48:46.140Z,0.00
2022-12-02T13:51:13.827Z,0.00
2022-12-02T13:53:43.508Z,0.00
2022-12-02T13:56:11.324Z,0.10
2022-12-02T13:58:39.148Z,0.08
2022-12-02T14:01:07.123Z,0.02
2022-12-02T14:03:35.159Z,0.00
2022-12-02T14:06:03.405Z,0.00
2022-12-02T14:08:31.285Z,0.00
2022-12-02T14:10:59.072Z,0.00
2022-12-02T14:13:26.854Z,0.00
2022-12-02T14:15:54.775Z,0.10
2022-12-02T14:18:22.595Z,0.10
2022-12-02T14:20:50.438Z,0.14
2022-12-02T14:23:18.281Z,0.20
2022-12-02T14:25:46.069Z,0.20
2022-12-02T14:28:13.932Z,0.20
2022-12-02T14:30:41.851Z,0.18
2022-12-02T14:33:09.712Z,0.10
2022-12-02T14:35:37.459Z,0.10
2022-12-02T14:38:05.166Z,0.10
2022-12-02T14:40:34.680Z,0.10
2022-12-02T14:43:02.421Z,0.10
2022-12-02T14:45:30.564Z,0.00
2022-12-02T14:47:58.236Z,0.00
2022-12-02T14:50:30.240Z,0.00
2022-12-02T14:52:59.006Z,-0.10
2022-12-02T14:55:27.085Z,-0.10
2022-12-02T14:57:54.879Z,-0.10
2022-12-02T15:00:24.779Z,-0.10
2022-12-02T15:02:52.589Z,-0.10
2022-12-02T15:05:22.470Z,-0.10
2022-12-02T15:07:50.262Z,-0.10
2022-12-02T15:10:18.291Z,-0.10
2022-12-02T15:12:45.917Z,-0.10
2022-12-02T15:15:37.515Z,0.00
2022-12-02T15:18:01.762Z,0.00
2022-12-02T15:20:29.483Z,0.00
2022-12-02T15:22:57.174Z,0.00
2022-12-02T15:25:24.855Z,0.00
2022-12-02T15:27:52.586Z,-0.10
2022-12-02T15:30:20.387Z,-0.10
2022-12-02T15:32:48.813Z,-0.12
2022-12-02T15:35:16.576Z,-0.10
2022-12-02T15:37:44.313Z,0.00
2022-12-02T15:40:13.375Z,0.00
2022-12-02T15:42:41.074Z,0.06
2022-12-02T15:45:09.324Z,0.10
2022-12-02T15:47:37.029Z,0.10
2022-12-02T15:50:05.666Z,0.16
2022-12-02T15:52:33.312Z,0.20
2022-12-02T15:55:01.033Z,0.16
2022-12-02T15:57:28.784Z,0.10
2022-12-02T15:59:56.477Z,0.10
2022-12-02T16:02:24.324Z,0.00
2022-12-02T16:04:52.763Z,0.00
2022-12-02T16:07:21.125Z,0.04
2022-12-02T16:09:49.008Z,0.10
2022-12-02T16:12:16.813Z,0.10
2022-12-02T16:14:44.647Z,0.10
2022-12-02T16:17:12.310Z,0.10
2022-12-02T16:19:40.236Z,0.00
2022-12-02T16:22:07.905Z,-0.04
2022-12-02T16:24:35.558Z,-0.10
2022-12-02T16:27:03.352Z,-0.10
2022-12-02T16:29:31.071Z,-0.10
2022-12-02T16:31:58.878Z,-0.10
2022-12-02T16:34:26.824Z,-0.10
2022-12-02T16:36:54.686Z,-0.10
2022-12-02T16:39:22.564Z,-0.08
2022-12-02T16:41:50.370Z,-0.10
2022-12-02T16:44:18.047Z,-0.10
2022-12-02T16:46:45.759Z,-0.10
2022-12-02T16:49:13.443Z,-0.10
2022-12-02T16:51:41.331Z,-0.10
2022-12-02T16:54:09.024Z,-0.20
2022-12-02T16:56:36.830Z,-0.24
2022-12-02T16:59:04.612Z,-0.22
2022-12-02T17:01:32.374Z,-0.20
2022-12-02T17:04:00.117Z,-0.20
2022-12-02T17:06:27.771Z,-0.20
2022-12-02T17:08:56.172Z,-0.20
2022-12-02T17:11:23.986Z,-0.10
2022-12-02T17:13:51.721Z,-0.10
2022-12-02T17:16:19.380Z,-0.10
2022-12-02T17:18:47.134Z,-0.10
2022-12-02T17:21:14.785Z,-0.20
2022-12-02T17:23:42.700Z,-0.20
2022-12-02T17:26:10.348Z,-0.20
2022-12-02T17:28:37.963Z,-0.20
2022-12-02T17:31:05.842Z,-0.20
2022-12-02T17:33:33.579Z,-0.20
2022-12-02T17:36:01.358Z,-0.20
2022-12-02T17:38:29.028Z,-0.20
2022-12-02T17:41:11.896Z,-0.20
2022-12-02T17:43:40.309Z,-0.20
2022-12-02T17:46:08.053Z,-0.20
2022-12-02T17:48:36.011Z,-0.14
2022-12-02T17:51:04.268Z,-0.18
2022-12-02T17:53:32.059Z,-0.20
2022-12-02T17:55:59.748Z,-0.20
2022-12-02T17:58:27.428Z,-0.20
2022-12-02T18:00:55.193Z,-0.20
2022-12-02T18:03:23.017Z,-0.20
2022-12-02T18:05:51.001Z,-0.20
2022-12-02T18:08:20.286Z,-0.20
2022-12-02T18:10:49.806Z,-0.20
2022-12-02T18:13:17.916Z,-0.20
2022-12-02T18:15:45.558Z,-0.30
2022-12-02T18:18:13.340Z,-0.30
2022-12-02T18:20:41.548Z,-0.36
2022-12-02T18:23:09.454Z,-0.40
2022-12-02T18:25:37.263Z,-0.40
2022-12-02T18:28:05.408Z,-0.40
2022-12-02T18:30:33.312Z,-0.30
2022-12-02T18:33:01.090Z,-0.34
2022-12-02T18:35:28.851Z,-0.34
2022-12-02T18:37:56.669Z,-0.40
2022-12-02T18:40:24.560Z,-0.40
2022-12-02T18:42:52.592Z,-0.42
2022-12-02T18:45:20.705Z,-0.46
2022-12-02T18:47:48.794Z,-0.40
2022-12-02T18:50:16.859Z,-0.40
2022-12-02T18:52:44.673Z,-0.40
2022-12-02T18:55:14.488Z,-0.30
2022-12-02T18:57:42.513Z,-0.30
2022-12-02T19:00:14.329Z,-0.34
2022-12-02T19:02:42.179Z,-0.30
2022-12-02T19:05:10.867Z,-0.30
2022-12-02T19:07:38.744Z,-0.30
2022-12-02T19:10:07.605Z,-0.30
2022-12-02T19:12:35.384Z,-0.30
2022-12-02T19:15:04.140Z,-0.30
2022-12-02T19:17:31.786Z,-0.30
2022-12-02T19:20:00.314Z,-0.30
2022-12-02T19:22:28.194Z,-0.30
2022-12-02T19:24:56.010Z,-0.20
2022-12-02T19:30:12.083Z,-0.20
2022-12-02T19:32:39.969Z,-0.20
2022-12-02T19:35:07.922Z,-0.24
2022-12-02T19:37:35.644Z,-0.30
2022-12-02T19:40:03.774Z,-0.30
2022-12-02T19:42:31.416Z,-0.30
2022-12-02T19:44:59.078Z,-0.32
2022-12-02T19:47:26.755Z,-0.30
2022-12-02T19:49:54.427Z,-0.30
2022-12-02T19:52:22.217Z,-0.30
2022-12-02T19:54:51.911Z,-0.20
2022-12-02T19:57:19.764Z,-0.22
2022-12-02T19:59:47.571Z,-0.20
2022-12-02T20:02:15.342Z,-0.20
2022-12-02T20:04:43.741Z,-0.24
2022-12-02T20:07:11.616Z,-0.30
2022-12-02T20:09:39.319Z,-0.30
2022-12-02T20:12:07.294Z,-0.30
2022-12-02T20:14:34.988Z,-0.30
2022-12-02T20:17:02.647Z,-0.30
2022-12-02T20:19:30.391Z,-0.26
2022-12-02T20:21:58.025Z,-0.20
2022-12-02T20:24:25.936Z,-0.20
2022-12-02T20:26:53.636Z,-0.30
2022-12-02T20:29:22.043Z,-0.30
2022-12-02T20:31:49.780Z,-0.28
2022-12-02T20:34:17.556Z,-0.24
2022-12-02T20:36:45.692Z,-0.30
2022-12-02T20:39:14.546Z,-0.30
2022-12-02T20:41:42.215Z,-0.28
2022-12-02T20:44:09.980Z,-0.22
2022-12-02T20:46:37.698Z,-0.20
2022-12-02T20:49:05.534Z,-0.20
2022-12-02T20:51:33.333Z,-0.20
2022-12-02T20:54:00.999Z,-0.20
2022-12-02T20:56:28.842Z,-0.20
2022-12-02T20:58:56.473Z,-0.20
2022-12-02T21:01:24.175Z,-0.20
2022-12-02T21:03:52.103Z,-0.20
2022-12-02T21:06:20.255Z,-0.20
2022-12-02T21:08:48.034Z,-0.20
2022-12-02T21:11:15.748Z,-0.20
2022-12-02T21:13:45.553Z,-0.20
2022-12-02T21:16:13.365Z,-0.20
2022-12-02T21:18:41.246Z,-0.12
2022-12-02T21:21:08.971Z,-0.10
2022-12-02T21:23:36.651Z,-0.10
2022-12-02T21:26:04.422Z,-0.10
2022-12-02T21:28:32.220Z,-0.10
2022-12-02T21:30:59.925Z,-0.10
2022-12-02T21:33:27.623Z,-0.10
2022-12-02T21:35:55.312Z,-0.20
2022-12-02T21:38:23.889Z,-0.20
2022-12-02T21:40:52.373Z,-0.20
2022-12-02T21:43:20.036Z,-0.20
2022-12-02T21:45:47.990Z,-0.20
2022-12-02T21:48:15.728Z,-0.16
2022-12-02T21:50:43.512Z,-0.10
2022-12-02T21:53:11.166Z,-0.10
2022-12-02T21:55:38.937Z,-0.14
2022-12-02T21:58:06.719Z,-0.20
2022-12-02T22:00:34.350Z,-0.20
2022-12-02T22:03:02.778Z,-0.20
2022-12-02T22:05:30.735Z,-0.18
2022-12-02T22:07:58.545Z,-0.10
2022-12-02T22:10:26.415Z,-0.10
2022-12-02T22:12:54.169Z,-0.10
2022-12-02T22:15:22.800Z,-0.10
2022-12-02T22:17:50.418Z,-0.02
2022-12-02T22:20:18.452Z,0.00
2022-12-02T22:22:46.207Z,0.00
2022-12-02T22:25:13.925Z,-0.02
2022-12-02T22:27:41.758Z,-0.10
2022-12-02T22:30:10.947Z,-0.10
2022-12-02T22:32:38.671Z,-0.10
2022-12-02T22:35:08.601Z,-0.10
2022-12-02T22:37:36.353Z,-0.10
2022-12-02T22:40:05.724Z,-0.04
2022-12-02T22:42:33.445Z,0.00
2022-12-02T22:45:01.450Z,0.00
2022-12-02T22:47:29.202Z,0.00
2022-12-02T22:49:56.878Z,0.00
2022-12-02T22:52:24.597Z,0.00
2022-12-02T22:54:52.435Z,-0.02
2022-12-02T22:57:20.189Z,-0.10
2022-12-02T22:59:47.880Z,-0.10
2022-12-02T23:02:17.573Z,-0.10
2022-12-02T23:04:45.701Z,-0.10
2022-12-02T23:07:13.477Z,-0.10
2022-12-02T23:09:41.218Z,-0.10
2022-12-02T23:12:08.959Z,-0.10
2022-12-02T23:14:36.634Z,-0.10
2022-12-02T23:17:04.316Z,-0.08
2022-12-02T23:19:32.164Z,-0.10
2022-12-02T23:21:59.813Z,-0.10
2022-12-02T23:24:27.480Z,-0.06
2022-12-02T23:26:55.162Z,-0.10
2022-12-02T23:29:22.755Z,-0.10
2022-12-02T23:31:50.593Z,-0.06
2022-12-02T23:34:18.233Z,0.00
2022-12-02T23:36:45.863Z,0.00
2022-12-02T23:39:13.562Z,0.00
2022-12-02T23:41:41.305Z,0.00
2022-12-02T23:44:09.010Z,0.00
2022-12-02T23:46:36.757Z,0.00
2022-12-02T23:49:04.572Z,0.00
2022-12-02T23:51:32.292Z,0.00
2022-12-02T23:54:00.015Z,-0.10
2022-12-02T23:56:27.716Z,-0.10
2022-12-02T23:58:55.268Z,-0.10
